Latest Coastal Weather Observations for Adelaide Airport

IDS60701

Issued at 2:31 pm CST Saturday 25 June 2016 (issued every 10 minutes, with the page automatically refreshed every 10 minutes)

About coastal observations | Map of coastal stations | Coastal observations for SA | Marine services | Other Formats
Station Details ID: 023034 Name: ADELAIDE AIRPORT Lat: -34.95 Lon: 138.52 Height: 2.0 m
Data from the previous 72 hours. | See also: Recent months at Adelaide Airport
Date/Time
CST
Temp
°C
Wind Pressure Rain since
9am
mm
Weather Cloud Vis
km
Sea
Height
m
Swell
Dir  Spd
kts
Gust
kts
hPa Trend Height
m
Period
s
Dir
25/02:00pm 12.6 NNE 7 10 1022.5 - 0.0 - Partly cloudy 10 - - - -
25/01:30pm 12.3 NNE 8 10 1022.9 - 0.0 - Partly cloudy 10 - - - -
25/01:00pm 12.9 N 9 12 1023.2 - 0.0 - Partly cloudy 10 - - - -
25/12:30pm 13.0 N 9 11 1023.9 - 0.0 - Partly cloudy 10 - - - -
25/12:00pm 12.8 N 9 13 1024.4 F 0.0 Fine Partly cloudy 25 - - - -
25/11:30am 12.6 N 8 11 1024.8 - 0.0 - Mostly clear 10 - - - -
25/11:00am 11.9 N 9 11 1025.1 - 0.0 - Mostly clear 10 - - - -
25/10:30am 11.7 NNE 9 13 1025.4 - 0.0 - Mostly clear 10 - - - -
25/10:00am 10.6 NNE 9 13 1025.3 - 0.0 - Mostly clear 10 - - - -
25/09:30am 9.2 NNE 10 12 1025.1 - 0.0 - Mostly clear 10 - - - -
25/09:00am 9.2 NE 8 10 1025.2 R 0.2 Fine Partly cloudy 20 - - - -
25/08:30am 8.2 NE 6 8 1025.1 - 0.2 - Mostly clear 10 - - - -
25/08:00am 6.0 NE 6 7 1025.0 - 0.2 - Mostly clear 10 - - - -
25/07:30am 5.2 NE 7 8 1024.8 - 0.2 - Mostly clear 10 - - - -
25/07:00am 5.1 NE 6 7 1024.4 - 0.2 - Mostly clear 10 - - - -
25/06:30am 5.6 NE 7 8 1024.3 - 0.0 - Mostly clear 10 - - - -
25/06:00am 5.1 NE 6 7 1024.1 R 0.0 Fine Mostly clear 25 - - - -
25/05:30am 5.9 NE 7 8 1023.9 - 0.0 - Mostly clear 10 - - - -
25/05:00am 6.1 NE 7 9 1023.8 - 0.0 - Mostly clear 10 - - - -
25/04:30am 6.1 NE 7 8 1023.7 - 0.0 - Mostly clear 10 - - - -
25/04:00am 6.5 NE 7 8 1023.7 - 0.0 - Mostly clear 10 - - - -
25/03:30am 6.6 ENE 6 7 1023.7 - 0.0 - Mostly clear 10 - - - -
25/03:00am 6.4 NE 7 8 1023.7 R 0.0 Fine Partly cloudy 25 - - - -
25/02:30am 6.6 NE 7 8 1023.7 - 0.0 - Mostly clear 10 - - - -
25/02:00am 7.4 NE 7 9 1023.6 - 0.0 - Mostly clear 10 - - - -
25/01:30am 8.1 N 7 9 1023.3 - 0.0 - Mostly clear 10 - - - -
25/01:00am 7.4 NNE 7 8 1023.3 - 0.0 - Mostly clear 10 - - - -
25/12:30am 6.3 NE 7 7 1023.2 - 0.0 - Mostly clear 10 - - - -
25/12:00am 6.9 NNE 5 6 1023.0 R 0.0 Fine Mostly clear 25 - - - -
 
Date/Time
CST
Temp
°C
Wind Pressure Rain since
9am
mm
Weather Cloud Vis
km
Sea
Height
m
Swell
Dir  Spd
kts
Gust
kts
hPa Trend Height
m
Period
s
Dir
24/11:30pm 7.1 NE 3 4 1022.9 - 0.0 - Mostly clear 10 - - - -
24/11:00pm 7.1 ENE 4 5 1023.1 - 0.0 - Mostly clear 10 - - - -
24/10:30pm 8.1 ENE 4 5 1023.0 - 0.0 - Mostly clear 10 - - - -
24/10:00pm 8.4 ENE 4 5 1022.9 - 0.0 - Mostly clear 10 - - - -
24/09:30pm 8.9 ESE 4 4 1022.9 - 0.0 - Mostly clear 10 - - - -
24/09:00pm 9.6 SSE 6 7 1022.8 R 0.0 Fine Mostly cloudy 30 - - - -
24/08:30pm 10.9 SSW 8 14 1022.6 - 0.0 - Partly cloudy 10 - - - -
24/08:00pm 10.7 SSE 5 6 1022.3 - 0.0 - Partly cloudy 10 - - - -
24/07:30pm 11.3 S 6 8 1021.9 - 0.0 - Partly cloudy 10 - - - -
24/07:00pm 11.7 SW 9 11 1021.4 - 0.0 - Partly cloudy 10 - - - -
24/06:30pm 11.6 SW 10 13 1020.9 - 0.0 - Partly cloudy 10 - - - -
24/06:00pm 11.3 SW 4 10 1020.5 R 0.0 Fine Partly cloudy 30 - - - -
24/05:30pm 9.4 S 5 7 1020.1 - 0.0 - Partly cloudy 10 - - - -
24/05:00pm 11.2 SW 10 14 1019.8 - 0.0 - Mostly cloudy 10 - - - -
24/04:30pm 11.3 SSW 11 15 1019.4 - 0.0 - Partly cloudy 10 - - - -
24/04:00pm 11.6 SSW 15 19 1018.9 - 0.0 - Partly cloudy 10 - - - -
24/03:30pm 12.1 SW 14 18 1018.3 - 0.0 - Partly cloudy 10 - - - -
24/03:00pm 11.2 SW 15 22 1018.1 R 0.0 Showers Mostly cloudy 15 - - - -
24/02:30pm 12.4 SW 16 21 1017.8 - 0.0 - Mostly clear 10 - - - -
24/02:00pm 11.4 SW 14 18 1017.6 - 0.0 - Mostly clear 10 - - - -
24/01:30pm 12.7 SW 16 23 1017.4 - 0.0 - Partly cloudy 10 - - - -
24/01:00pm 12.0 SSW 12 17 1017.5 - 0.0 - Mostly clear 10 - - - -
24/12:30pm 11.9 SSW 17 22 1017.4 - 0.0 - Partly cloudy 10 - - - -
24/12:00pm 12.4 SW 17 21 1017.3 R 0.0 Fine Mostly clear 20 - - - -
24/11:30am 11.6 SW 19 25 1017.4 - 0.0 - Mostly clear 10 - - - -
24/11:00am 11.7 SSW 16 23 1017.2 - 0.0 - Mostly clear 10 - - - -
24/10:47am 11.3 SSW 21 31 1017.0 - 0.0 - Partly cloudy 10 - - - -
24/10:30am 12.1 SW 22 29 1016.6 - 0.0 - Partly cloudy 10 - - - -
24/10:00am 11.8 SW 23 30 1016.2 - 0.0 - Mostly clear 10 - - - -
24/09:30am 11.7 SW 23 27 1015.4 - 0.0 - Mostly clear 10 - - - -
24/09:00am 11.0 SW 19 27 1014.9 R 13.6 Distant precip. Partly cloudy 20 - - - -
24/08:30am 10.6 SW 20 26 1014.1 - 13.6 - Partly cloudy 10 - - - -
24/08:00am 10.0 SW 18 22 1013.5 - 13.6 - Mostly clear 10 - - - -
24/07:30am 10.0 SW 21 30 1012.8 - 13.6 - Partly cloudy 10 - - - -
24/07:09am 10.2 SW 19 30 1012.4 - 13.6 - Partly cloudy 10 - - - -
24/07:00am 10.2 SW 19 27 1012.3 - 13.6 - Partly cloudy 10 - - - -
24/06:41am 10.1 SW 20 30 1011.8 - 13.6 - Mostly clear 10 - - - -
24/06:30am 10.8 SW 25 32 1011.6 - 13.6 - Partly cloudy 10 - - - -
24/06:03am 11.0 SW 26 39 1010.8 - 13.6 - Partly cloudy 10 - - - -
24/06:00am 11.1 WSW 25 32 1010.8 R 13.6 Fine Mostly cloudy 30 - - - -
24/05:40am 11.1 SW 25 35 1010.3 - 13.6 - Partly cloudy 10 - - - -
24/05:30am 11.1 SW 25 32 1010.0 - 13.6 - Partly cloudy 10 - - - -
24/05:00am 10.9 SW 23 31 1009.4 - 13.6 - Partly cloudy 10 - - - -
24/04:30am 10.9 SW 26 33 1008.8 - 13.6 - Mostly clear 10 - - - -
24/04:15am 10.6 SW 23 33 1008.6 - 13.6 - Mostly clear 10 - - - -
24/04:00am 10.5 SW 22 30 1008.5 - 13.6 - Mostly clear 10 - - - -
24/03:30am 10.0 SW 23 33 1008.1 - 13.6 - Mostly clear 10 - - - -
24/03:24am 10.5 SW 26 36 1008.0 - 13.6 - Mostly clear 10 - - - -
24/03:00am 10.6 WSW 28 36 1007.6 R 13.6 Recent precip. Mostly cloudy 25 - - - -
24/02:30am 9.0 WSW 26 35 1007.5 - 13.6 - Mostly clear 10 - - - -
24/02:00am 9.2 WSW 29 38 1007.2 - 12.0 Showers Mostly clear 5 - - - -
24/01:53am 10.1 W 28 42 1006.8 - 11.2 Showers Partly cloudy 8 - - - -
24/01:30am 10.6 W 22 29 1006.4 - 11.2 - Mostly clear 10 - - - -
24/01:00am 10.2 W 22 31 1006.6 - 11.2 - Partly cloudy 10 - - - -
24/12:54am 10.2 W 23 36 1006.6 - 11.2 - Partly cloudy 10 - - - -
24/12:37am 9.7 W 25 43 1006.5 - 11.2 Showers Partly cloudy 6 - - - -
24/12:35am 9.9 W 21 39 1006.4 - 11.2 Showers Partly cloudy 6 - - - -
24/12:30am 12.4 W 20 29 1005.9 - 10.8 - Partly cloudy 10 - - - -
24/12:09am 12.1 W 21 31 1006.0 - 10.8 - Mostly clear 10 - - - -
24/12:00am 12.1 W 21 28 1006.0 R 10.8 Fine Partly cloudy 30 - - - -
 
Date/Time
CST
Temp
°C
Wind Pressure Rain since
9am
mm
Weather Cloud Vis
km
Sea
Height
m
Swell
Dir  Spd
kts
Gust
kts
hPa Trend Height
m
Period
s
Dir
23/11:42pm 12.1 W 22 32 1005.9 - 10.8 - Mostly clear 10 - - - -
23/11:30pm 12.2 W 21 28 1005.7 - 10.8 - Mostly clear 10 - - - -
23/11:00pm 12.2 W 23 30 1005.8 - 10.8 - Mostly clear 10 - - - -
23/10:30pm 12.0 W 22 31 1005.7 - 10.8 - Mostly clear 10 - - - -
23/10:24pm 12.0 W 22 32 1005.6 - 10.8 - Mostly clear 10 - - - -
23/10:00pm 11.9 W 22 29 1005.4 - 10.8 - Mostly clear 10 - - - -
23/09:30pm 11.9 W 19 28 1005.6 - 10.8 - Mostly clear 10 - - - -
23/09:00pm 11.5 W 19 28 1005.5 R 10.8 Fine Mostly clear 30 - - - -
23/08:30pm 11.6 W 20 29 1005.3 - 10.8 - Mostly clear 10 - - - -
23/08:21pm 11.5 W 19 29 1005.2 - 10.8 - Mostly clear 10 - - - -
23/08:00pm 11.5 WSW 21 27 1005.0 - 10.8 - Mostly clear 10 - - - -
23/07:44pm 11.8 W 22 32 1004.7 - 10.8 - Mostly clear 10 - - - -
23/07:30pm 12.2 W 23 30 1004.4 - 10.8 - Mostly clear 10 - - - -
23/07:00pm 12.2 WNW 16 20 1003.9 - 10.8 - Mostly clear 10 - - - -
23/06:30pm 12.0 WNW 20 27 1003.6 - 10.8 - Partly cloudy 10 - - - -
23/06:13pm 12.3 WNW 18 28 1003.3 - 10.8 - Mostly clear 10 - - - -
23/06:00pm 12.5 WNW 17 22 1003.1 R 10.8 Fine Mostly cloudy 25 - - - -
23/05:30pm 12.2 WNW 16 22 1002.9 - 10.8 - Mostly clear 10 - - - -
23/05:00pm 12.2 W 14 19 1002.4 - 10.8 - Mostly clear 10 - - - -
23/04:30pm 12.1 WNW 19 26 1002.5 - 10.8 - Mostly clear 10 - - - -
23/04:00pm 10.4 W 19 28 1002.3 - 10.8 - Mostly clear 10 - - - -
23/03:58pm 10.4 W 21 34 1002.4 - 10.8 - Mostly clear 8 - - - -
23/03:52pm 9.8 WSW 21 34 1002.8 - 10.6 Rain Mostly clear 6 - - - -
23/03:49pm 10.0 WSW 18 33 1003.1 - 10.6 Rain Mostly clear 2 - - - -
23/03:46pm 10.8 WSW 15 26 1003.0 - 10.2 Rain Mostly clear 5 - - - -
23/03:30pm 11.4 WSW 13 17 1002.7 - 10.2 - Partly cloudy 8 - - - -
23/03:00pm 10.7 SW 17 22 1002.4 R 9.4 Rain Cloudy 2 - - - -
23/02:56pm 10.8 SW 17 22 1002.3 - 9.2 Rain Mostly clear 2 - - - -
23/02:44pm 11.0 WSW 15 23 1001.8 - 8.8 Rain Mostly clear 5 - - - -
23/02:30pm 11.8 WNW 17 21 1001.8 - 8.6 - Mostly clear 8 - - - -
23/02:25pm 11.9 WNW 18 24 1001.9 - 8.4 Rain Mostly clear 9 - - - -
23/02:00pm 11.9 WNW 15 19 1002.0 - 8.4 Rain Mostly clear 7 - - - -
23/01:30pm 11.7 WNW 16 19 1002.2 - 7.8 - Partly cloudy 6 - - - -
23/01:26pm 11.8 WNW 16 20 1002.3 - 7.8 Rain Partly cloudy 6 - - - -
23/01:00pm 10.9 WNW 11 15 1002.4 - 7.4 - Partly cloudy 8 - - - -
23/12:30pm 11.3 W 15 22 1002.9 - 6.6 - Partly cloudy 6 - - - -
23/12:00pm 12.1 WNW 26 36 1003.1 F 2.6 Rain Cloudy 3 - - - -
23/11:53am 12.2 NW 22 33 1003.1 - 2.0 Rain Mostly clear 3 - - - -
23/11:43am 12.3 NNW 21 31 1003.0 - 1.0 Rain Mostly clear 2 - - - -
23/11:39am 12.8 NNW 20 28 1002.8 - 0.6 Rain Mostly clear 2 - - - -
23/11:30am 12.8 NNW 21 28 1002.9 - 0.4 - Mostly clear 10 - - - -
23/11:22am 12.6 NNW 18 24 1003.1 - 0.4 - Mostly clear 9 - - - -
23/11:00am 12.5 NNW 21 30 1003.5 - 0.2 Rain Mostly clear 5 - - - -
23/10:59am 12.6 NNW 20 30 1003.5 - 0.2 Rain Mostly clear 7 - - - -
23/10:30am 13.0 NNW 19 27 1004.0 - 0.0 - Mostly clear 10 - - - -
23/10:05am 13.3 NNW 22 32 1004.2 - 0.0 - Mostly clear 10 - - - -
23/10:00am 13.3 NNW 21 29 1004.4 - 0.0 - Mostly clear 10 - - - -
23/09:30am 13.9 N 13 22 1004.5 - 0.0 - Mostly clear 10 - - - -
23/09:00am 13.0 N 13 19 1004.6 F 2.4 Fine Mostly cloudy 25 - - - -
23/08:30am 13.3 N 12 19 1004.5 - 2.4 - Mostly clear 10 - - - -
23/08:00am 13.0 NNW 15 21 1004.7 - 2.4 - Mostly clear 10 - - - -
23/07:30am 12.7 NNW 16 20 1004.6 - 2.4 - Mostly clear 10 - - - -
23/07:00am 12.5 N 17 20 1004.8 - 2.4 - Mostly clear 10 - - - -
23/06:30am 12.5 NNW 15 20 1004.9 - 2.4 - Mostly clear 10 - - - -
23/06:00am 12.4 NNW 13 17 1005.1 F 2.4 Recent precip. Mostly cloudy 8 - - - -
23/05:44am 12.0 NNW 16 21 1005.2 - 2.4 - Mostly clear 6 - - - -
23/05:30am 12.5 NNW 17 21 1005.3 - 2.2 - Mostly clear 10 - - - -
23/05:19am 12.3 NW 21 31 1005.4 - 2.2 - Partly cloudy 10 - - - -
23/05:00am 12.6 NW 16 20 1005.5 - 2.2 - Partly cloudy 10 - - - -
23/04:30am 12.3 NW 18 26 1005.8 - 1.6 - Mostly clear 9 - - - -
23/04:00am 13.0 NNW 16 21 1005.9 - 0.6 - Mostly clear 10 - - - -
23/03:30am 13.3 NNW 18 23 1006.3 - 0.6 - Mostly clear 10 - - - -
23/03:00am 13.5 NNW 18 25 1006.7 F 0.6 Fine Mostly cloudy 25 - - - -
23/02:30am 13.3 NNW 18 24 1006.9 - 0.6 - Mostly clear 10 - - - -
23/02:00am 13.1 N 9 16 1007.1 - 0.6 - Mostly clear 10 - - - -
23/01:30am 12.1 N 12 15 1007.4 - 0.6 - Mostly clear 10 - - - -
23/01:00am 12.8 N 11 16 1007.9 - 0.6 - - 10 - - - -
23/12:30am 13.4 NNW 17 22 1008.2 - 0.6 - Mostly clear 10 - - - -
23/12:00am 13.5 NNW 16 21 1008.4 F 0.6 Fine Partly cloudy 30 - - - -
 
Date/Time
CST
Temp
°C
Wind Pressure Rain since
9am
mm
Weather Cloud Vis
km
Sea
Height
m
Swell
Dir  Spd
kts
Gust
kts
hPa Trend Height
m
Period
s
Dir
22/11:30pm 14.2 NW 17 21 1008.8 - 0.6 - Mostly clear 10 - - - -
22/11:00pm 14.1 NNW 13 18 1009.0 - 0.6 - Mostly clear 10 - - - -
22/10:30pm 13.4 NNW 12 17 1009.2 - 0.6 - Mostly clear 10 - - - -
22/10:00pm 13.6 NNW 12 16 1009.5 - 0.6 - Mostly clear 10 - - - -
22/09:30pm 14.0 NNW 13 17 1009.6 - 0.6 - Mostly clear 10 - - - -
22/09:00pm 14.2 NNW 13 16 1009.9 F 0.6 Fine Mostly cloudy 25 - - - -
22/08:30pm 14.3 NW 15 19 1009.9 - 0.6 - Mostly clear 10 - - - -
22/08:00pm 14.1 NNW 9 11 1009.8 - 0.6 - Mostly clear 10 - - - -
22/07:30pm 13.9 NNW 13 17 1009.7 - 0.6 - Mostly clear 10 - - - -
22/07:00pm 14.0 NNW 14 18 1009.7 - 0.6 - Mostly clear 10 - - - -
22/06:30pm 13.9 NNW 13 18 1009.5 - 0.6 - Mostly clear 10 - - - -
22/06:00pm 14.0 NW 14 18 1009.6 F 0.6 Fine Mostly clear 30 - - - -
22/05:30pm 13.6 NW 11 15 1009.6 - 0.6 - Mostly clear 10 - - - -
22/05:00pm 13.8 NNW 13 17 1009.4 - 0.6 - Mostly clear 10 - - - -
22/04:30pm 14.2 NW 15 19 1009.4 - 0.6 - Mostly clear 10 - - - -
22/04:00pm 14.8 NW 14 20 1009.8 - 0.6 - Mostly clear 10 - - - -
22/03:30pm 15.1 NW 16 21 1009.9 - 0.6 - Mostly clear 10 - - - -
22/03:00pm 15.6 NW 16 21 1009.7 R 0.6 Fine Mostly clear 30 - - - -

Other Formats:

Comma delimited format used in spreadsheet applications
http://www.bom.gov.au/fwo/IDS60701/IDS60701.94672.axf

JavaScript Object Notation format (JSON) in row-major order
http://www.bom.gov.au/fwo/IDS60701/IDS60701.94672.json